• Join FlightAware (Why Join?)
  • Login
  • US Flag 
05:27AM EST


 

Airport Tracker/Info


-or-


 

Live Flight TrackerFlight Track Log ✈ UCA4848 ✈ 03-Sep-2013 ✈ KCLE - KBWI

Flight Track Log - Related Links

Times and Time Zones

All times are in EDT time to prevent confusion due to time zone crossing. See the UCA4848 flight status page for this flight to view local times or setup timezone preferences in your user account.

Time Position Orientation Groundspeed Altitude Reporting Facility
EDT Latitude Longitude Course Direction KTS MPH feet Rate Location/Type
08:11AM 41.4194 -81.8292 93° East 172 198 1,500  Level Cleveland Center
08:12AM 41.4178 -81.7875 93° East 174 200 2,300 1,080 Climbing Cleveland Center
08:13AM 41.3997 -81.7292 112° Southeast 197 227 3,400 1,080 Climbing Cleveland Center
08:14AM 41.3753 -81.6817 124° Southeast 196 226 4,200 1,200 Climbing Cleveland Center
08:15AM 41.3383 -81.6203 129° Southeast 201 231 5,500 1,140 Climbing Cleveland Center
08:16AM 41.3094 -81.5644 125° Southeast 212 244 6,500 1,020 Climbing Cleveland Center
08:17AM 41.2725 -81.5003 127° Southeast 217 250 7,600 960 Climbing Cleveland Center
08:18AM 41.2397 -81.4364 124° Southeast 217 250 8,500 900 Climbing Cleveland Center
08:19AM 41.2006 -81.3697 128° Southeast 222 255 9,400 900 Climbing Cleveland Center
08:20AM 41.1614 -81.3003 127° Southeast 230 265 10,400 960 Climbing Cleveland Center
08:21AM 41.1075 -81.2639 153° Southeast 220 253 11,400 960 Climbing Cleveland Center
08:22AM 41.0472 -81.2383 162° South 215 247 12,400 840 Climbing Cleveland Center
08:23AM 40.9847 -81.2131 163° South 229 264 13,100 720 Climbing Cleveland Center
08:24AM 40.9203 -81.1875 163° South 229 264 13,900 720 Climbing Cleveland Center
08:25AM 40.8578 -81.1625 163° South 229 264 14,600 600 Climbing Cleveland Center
08:26AM 40.7956 -81.1372 163° South 229 264 15,200 600 Climbing Cleveland Center
08:27AM 40.7331 -81.1092 161° South 234 269 15,900 600 Climbing Cleveland Center
08:28AM 40.6686 -81.0839 163° South 240 276 16,500 540 Climbing Cleveland Center
08:29AM 40.5997 -81.0561 163° South 245 282 17,000 240 Climbing Cleveland Center
08:30AM 40.5417 -81.0283 160° South 245 282 17,000  Level Cleveland Center
08:31AM 40.4686 -80.9978 162° South 257 296 17,000  Level Cleveland Center
08:32AM 40.3939 -80.9647 161° South 271 312 17,000  Level Cleveland Center
08:33AM 40.3189 -80.9372 164° South 281 323 17,000  Level Cleveland Center
08:34AM 40.2586 -80.8742 141° Southeast 281 323 17,000  Level Cleveland Center
08:35AM 40.2067 -80.7925 130° Southeast 273 314 17,000  Level Cleveland Center
08:36AM 40.1525 -80.7161 133° Southeast 279 321 17,000  Level Cleveland Center
08:37AM 40.1006 -80.6375 131° Southeast 284 327 17,000  Level Cleveland Center
08:38AM 40.0483 -80.5614 132° Southeast 289 333 17,000  Level Cleveland Center
08:39AM 39.9878 -80.4747 132° Southeast 296 341 17,000  Level Cleveland Center
08:40AM 39.9356 -80.3961 131° Southeast 291 335 17,000  Level Cleveland Center
08:41AM 39.8814 -80.3206 133° Southeast 291 335 17,000  Level Cleveland Center
08:42AM 39.8269 -80.2425 132° Southeast 291 335 17,000  Level Cleveland Center
08:43AM 39.7744 -80.1644 131° Southeast 291 335 17,000  Level Cleveland Center
08:44AM 39.7200 -80.0892 133° Southeast 291 335 17,000  Level Cleveland Center
08:45AM 39.6675 -80.0114 131° Southeast 291 335 17,000  Level Cleveland Center
08:46AM 39.6131 -79.9364 133° Southeast 291 335 17,000  Level Cleveland Center
08:47AM 39.5611 -79.8556 130° Southeast 274 315 17,000  Level Washington Center
08:48AM 39.5522 -79.7553 97° East 263 303 17,000  Level Washington Center
08:49AM 39.5433 -79.6472 96° East 270 311 17,000  Level Washington Center
08:50AM 39.5364 -79.5444 95° East 287 330 17,000  Level Washington Center
08:51AM 39.5292 -79.4419 95° East 287 330 17,000  Level Washington Center
08:52AM 39.5200 -79.3364 96° East 292 336 17,000  Level Washington Center
08:53AM 39.5047 -79.2228 100° East 292 336 17,000  Level Washington Center
08:54AM 39.4997 -79.1175 93° East 292 336 17,000 -120 Level Washington Center
08:55AM 39.4878 -79.0175 99° East 292 336 16,800 -480 Descending Washington Center
08:56AM 39.4786 -78.9042 96° East 297 342 16,100 -720 Descending Washington Center
08:57AM 39.4711 -78.7908 95° East 303 349 15,400 -720 Descending Washington Center
08:58AM 39.4617 -78.6775 96° East 308 354 14,700 -720 Descending Washington Center
08:59AM 39.4500 -78.5642 98° East 313 360 14,000 -720 Descending Washington Center
09:00AM 39.4400 -78.4536 97° East 313 360 13,300 -720 Descending Washington Center
09:01AM 39.4303 -78.3431 96° East 313 360 12,600 -720 Descending Washington Center
09:02AM 39.4200 -78.2325 97° East 313 360 11,900 -720 Descending Washington Center
09:03AM 39.4100 -78.1219 97° East 313 360 11,200 -660 Descending Washington Center
09:04AM 39.4017 -78.0250 96° East 313 360 10,600 -660 Descending Washington Center
09:05AM 39.3911 -77.9144 97° East 313 360 9,900 -900 Descending Washington Center
09:06AM 39.3869 -77.8069 93° East 313 360 8,900 -1,020 Descending Washington Center
09:07AM 39.4014 -77.7025 80° East 303 349 7,900 -900 Descending Washington Center
09:08AM 39.4156 -77.5983 80° East 298 343 7,100 -480 Descending Washington Center
09:09AM 39.4278 -77.4992 81° East 292 336 7,000 -60 Descending Washington Center
09:11AM 39.4500 -77.3167 81° East 277 319 7,000 -60 Level Potomac TRACON
09:12AM 39.4667 -77.2167 78° East 282 325 6,900 -720 Descending Potomac TRACON
09:13AM 39.4833 -77.1000 79° East 300 345 5,600 -960 Descending Potomac TRACON
09:14AM 39.5000 -77.0167 75° East 289 333 5,000 -360 Descending Potomac TRACON
09:15AM 39.5167 -76.9167 78° East 276 318 5,000  Level Potomac TRACON
09:16AM 39.5333 -76.8333 75° East 270 311 5,000  Level Potomac TRACON
09:17AM 39.5333 -76.7333 90° East 277 319 5,000  Level Potomac TRACON
09:18AM 39.5333 -76.6333 90° East 277 319 5,000  Level Potomac TRACON
09:19AM 39.4667 -76.5667 142° Southeast 267 307 5,000  Level Potomac TRACON
09:20AM 39.4000 -76.5333 159° South 260 299 5,000 -180 Level Potomac TRACON
09:20AM 39.3500 -76.5000 153° Southeast 259 298 4,700 -540 Descending Potomac TRACON
09:21AM 39.2833 -76.4833 169° South 265 305 4,000 -360 Descending Potomac TRACON
09:22AM 39.2000 -76.4667 171° South 245 282 4,000  Level Potomac TRACON
09:23AM 39.1500 -76.4333 153° Southeast 249 287 4,000  Level Potomac TRACON
09:25AM 39.0833 -76.4333 180° South 244 281 4,000 -480 Level Potomac TRACON
09:25AM 39.0333 -76.4833 218° Southwest 231 266 3,100 -660 Descending Potomac TRACON
09:26AM 39.0500 -76.5500 288° West 186 214 2,800 -600 Descending Potomac TRACON
09:27AM 39.0833 -76.5833 322° Northwest 173 199 1,900 -840 Descending Potomac TRACON
09:28AM 39.1167 -76.6167 322° Northwest 154 177 1,200 -780 Descending Potomac TRACON
09:29AM 39.1500 -76.6500 322° Northwest 119 137 500 -720 Descending Potomac TRACON